Time,TemperatureF,DewpointF,PressureIn,WindDirection,WindDirectionDegrees,WindSpeedMPH,WindSpeedGustMPH,Humidity,HourlyPrecipIn,Conditions,Clouds,dailyrainin,SoftwareType,DateUTC
2013-02-13 00:00:00,41.2,26.7,29.75,SSE,157,1.0,2.0,56,0.00,,,-99.99,WeatherLink 5.6,2013-02-13 05:00:00,
2013-02-13 00:30:00,41.2,27.1,29.74,SSE,157,1.0,6.0,57,0.00,,,-99.99,WeatherLink 5.6,2013-02-13 05:30:00,
2013-02-13 01:00:00,41.0,27.8,29.72,South,180,2.0,6.0,59,0.00,,,-99.99,WeatherLink 5.6,2013-02-13 06:00:00,
2013-02-13 01:30:00,40.8,28.0,29.71,South,180,1.0,7.0,60,0.00,,,-99.99,WeatherLink 5.6,2013-02-13 06:30:00,
2013-02-13 02:00:00,40.4,28.8,29.70,South,180,2.0,11.0,63,0.00,,,-99.99,WeatherLink 5.6,2013-02-13 07:00:00,
2013-02-13 02:30:00,39.9,30.2,29.68,South,180,3.0,11.0,68,0.00,,,-99.99,WeatherLink 5.6,2013-02-13 07:30:00,
2013-02-13 03:00:00,40.2,31.2,29.67,South,180,1.0,6.0,70,0.00,,,-99.99,WeatherLink 5.6,2013-02-13 08:00:00,
2013-02-13 03:30:00,39.4,29.7,29.66,SSE,157,0.0,2.0,68,0.00,,,-99.99,WeatherLink 5.6,2013-02-13 08:30:00,
2013-02-13 04:00:00,39.4,29.7,29.65,North,-999,0.0,0.0,68,0.00,,,-99.99,WeatherLink 5.6,2013-02-13 09:00:00,
2013-02-13 04:30:00,39.4,30.1,29.64,North,-999,0.0,0.0,69,0.00,,,-99.99,WeatherLink 5.6,2013-02-13 09:30:00,
2013-02-13 05:00:00,39.5,29.8,29.61,North,-999,0.0,0.0,68,0.00,,,-99.99,WeatherLink 5.6,2013-02-13 10:00:00,
2013-02-13 05:30:00,39.5,30.9,29.61,North,-999,0.0,0.0,71,0.00,,,-99.99,WeatherLink 5.6,2013-02-13 10:30:00,
2013-02-13 06:00:00,39.6,32.7,29.59,SE,135,0.0,2.0,76,0.00,,,-99.99,WeatherLink 5.6,2013-02-13 11:00:00,
2013-02-13 06:30:00,39.5,33.5,29.58,SE,135,0.0,1.0,79,0.01,,,-99.99,WeatherLink 5.6,2013-02-13 11:30:00,
2013-02-13 07:00:00,37.6,32.9,29.57,ESE,112,0.0,3.0,83,0.02,,,-99.99,WeatherLink 5.6,2013-02-13 12:00:00,
2013-02-13 07:30:00,37.4,33.9,29.55,SSE,157,0.0,3.0,87,0.02,,,-99.99,WeatherLink 5.6,2013-02-13 12:30:00,
2013-02-13 08:00:00,37.7,34.2,29.55,South,180,1.0,5.0,87,0.02,,,-99.99,WeatherLink 5.6,2013-02-13 13:00:00,
2013-02-13 08:30:00,37.1,34.4,29.56,SSE,157,1.0,4.0,90,0.02,,,-99.99,WeatherLink 5.6,2013-02-13 13:30:00,
2013-02-13 09:00:00,36.7,34.6,29.54,SSE,157,0.0,3.0,92,0.01,,,-99.99,WeatherLink 5.6,2013-02-13 14:00:00,
2013-02-13 09:30:00,37.0,35.2,29.52,SSE,157,2.0,6.0,93,0.01,,,-99.99,WeatherLink 5.6,2013-02-13 14:30:00,
2013-02-13 10:00:00,38.2,36.6,29.52,SSE,157,3.0,13.0,94,0.02,,,-99.99,WeatherLink 5.6,2013-02-13 15:00:00,
2013-02-13 10:30:00,38.6,37.3,29.53,NNW,337,0.0,3.0,95,0.03,,,-99.99,WeatherLink 5.6,2013-02-13 15:30:00,
2013-02-13 11:00:00,38.2,36.9,29.52,NW,315,0.0,2.0,95,0.05,,,-99.99,WeatherLink 5.6,2013-02-13 16:00:00,
2013-02-13 11:30:00,37.9,36.6,29.53,NNW,337,0.0,3.0,95,0.04,,,-99.99,WeatherLink 5.6,2013-02-13 16:30:00,
2013-02-13 12:00:00,36.8,35.5,29.53,NW,315,0.0,4.0,95,0.03,,,-99.99,WeatherLink 5.6,2013-02-13 17:00:00,
2013-02-13 12:30:00,36.4,35.1,29.52,NW,315,1.0,10.0,95,0.04,,,-99.99,WeatherLink 5.6,2013-02-13 17:30:00,
2013-02-13 13:00:00,36.0,34.7,29.51,NNW,337,1.0,10.0,95,0.03,,,-99.99,WeatherLink 5.6,2013-02-13 18:00:00,
2013-02-13 13:30:00,36.1,34.8,29.50,WNW,292,0.0,2.0,95,0.01,,,-99.99,WeatherLink 5.6,2013-02-13 18:30:00,
2013-02-13 14:00:00,36.0,35.0,29.51,NW,315,1.0,10.0,96,0.01,,,-99.99,WeatherLink 5.6,2013-02-13 19:00:00,
2013-02-13 14:30:00,34.4,33.1,29.53,NW,315,7.0,16.0,95,0.04,,,-99.99,WeatherLink 5.6,2013-02-13 19:30:00,
2013-02-13 15:00:00,33.0,32.0,29.56,NW,315,7.0,15.0,96,0.04,,,-99.99,WeatherLink 5.6,2013-02-13 20:00:00,
2013-02-13 15:30:00,32.8,31.5,29.58,NW,315,8.0,17.0,95,0.01,,,-99.99,WeatherLink 5.6,2013-02-13 20:30:00,
2013-02-13 16:00:00,32.7,31.7,29.60,NW,315,8.0,19.0,96,0.01,,,-99.99,WeatherLink 5.6,2013-02-13 21:00:00,
2013-02-13 16:30:00,32.3,31.0,29.61,NW,315,7.0,20.0,95,0.01,,,-99.99,WeatherLink 5.6,2013-02-13 21:30:00,
2013-02-13 17:00:00,31.5,30.5,29.64,NW,315,10.0,21.0,96,0.00,,,-99.99,WeatherLink 5.6,2013-02-13 22:00:00,
2013-02-13 17:30:00,31.1,29.8,29.67,NNW,337,7.0,19.0,95,0.00,,,-99.99,WeatherLink 5.6,2013-02-13 22:30:00,
2013-02-13 18:00:00,30.9,29.6,29.68,NW,315,6.0,16.0,95,0.00,,,-99.99,WeatherLink 5.6,2013-02-13 23:00:00,
2013-02-13 18:30:00,30.8,29.5,29.71,NW,315,6.0,15.0,95,0.00,,,-99.99,WeatherLink 5.6,2013-02-13 23:30:00,
2013-02-13 19:00:00,30.7,29.4,29.73,NW,315,7.0,15.0,95,0.00,,,-99.99,WeatherLink 5.6,2013-02-14 00:00:00,
2013-02-13 19:30:00,30.5,29.2,29.74,NW,315,5.0,13.0,95,0.00,,,-99.99,WeatherLink 5.6,2013-02-14 00:30:00,
2013-02-13 20:00:00,30.1,28.8,29.76,NW,315,7.0,14.0,95,0.00,,,-99.99,WeatherLink 5.6,2013-02-14 01:00:00,
2013-02-13 20:30:00,30.0,28.7,29.76,WNW,292,3.0,10.0,95,0.00,,,-99.99,WeatherLink 5.6,2013-02-14 01:30:00,
2013-02-13 21:00:00,29.9,28.6,29.78,NW,315,4.0,11.0,95,0.00,,,-99.99,WeatherLink 5.6,2013-02-14 02:00:00,
2013-02-13 21:30:00,29.5,28.2,29.78,WNW,292,6.0,15.0,95,0.00,,,-99.99,WeatherLink 5.6,2013-02-14 02:30:00,
2013-02-13 22:00:00,29.5,28.2,29.79,WNW,292,5.0,15.0,95,0.00,,,-99.99,WeatherLink 5.6,2013-02-14 03:00:00,
2013-02-13 22:30:00,29.5,28.2,29.79,WNW,292,5.0,13.0,95,0.00,,,-99.99,WeatherLink 5.6,2013-02-14 03:30:00,
2013-02-13 23:00:00,29.3,28.0,29.81,WNW,292,5.0,14.0,95,0.00,,,-99.99,WeatherLink 5.6,2013-02-14 04:00:00,
2013-02-13 23:30:00,29.3,28.0,29.82,NW,315,5.0,12.0,95,0.00,,,-99.99,WeatherLink 5.6,2013-02-14 04:30:00,